Time;durP1;ratioP1;P1;durP2;ratioP2;P2;SDS_P1;SDS_P2;PMS_P1;PMS_P2;Temp;Humidity;BMP_temperature;BMP_pressure;BME280_temperature;BME280_humidity;BME280_pressure;Samples;Min_cycle;Max_cycle;Signal;HPM_P1;HPM_P2
2022/09/22 00:01:17;;;;;;;5.60;4.47;;;6.40;99.90;;;;;;6312114;22;20869;-64
2022/09/22 00:03:48;;;;;;;4.70;3.67;;;6.40;99.90;;;;;;6312411;22;20813;-64
2022/09/22 00:06:16;;;;;;;8.60;4.63;;;6.40;99.90;;;;;;6312202;22;20398;-64
2022/09/22 00:08:50;;;;;;;8.83;4.53;;;6.30;1.00;;;;;;6311747;22;20712;-64
2022/09/22 00:11:23;;;;;;;6.43;4.30;;;6.20;99.90;;;;;;6312112;22;20533;-64
2022/09/22 00:13:53;;;;;;;9.17;4.07;;;6.10;1.00;;;;;;6312575;22;20496;-64
2022/09/22 00:16:26;;;;;;;5.00;3.90;;;6.10;1.00;;;;;;6312584;22;20493;-64
2022/09/22 00:18:53;;;;;;;7.43;4.27;;;6.10;22.30;;;;;;6312475;22;20450;-64
2022/09/22 00:21:23;;;;;;;7.37;4.60;;;6.10;1.00;;;;;;6312514;22;20454;-64
2022/09/22 00:23:52;;;;;;;7.87;4.80;;;6.10;1.00;;;;;;6312139;22;20422;-64
2022/09/22 00:26:22;;;;;;;8.57;4.90;;;6.10;1.00;;;;;;6311808;22;20441;-64
2022/09/22 00:28:51;;;;;;;6.17;3.80;;;6.10;1.00;;;;;;6312047;22;20408;-64
2022/09/22 00:31:23;;;;;;;6.17;4.17;;;6.00;45.80;;;;;;6312377;22;20740;-64
2022/09/22 00:33:50;;;;;;;5.53;4.73;;;6.00;1.00;;;;;;6311611;22;20417;-64
2022/09/22 00:36:20;;;;;;;5.70;4.40;;;6.10;99.90;;;;;;6312210;22;20391;-65
2022/09/22 00:38:49;;;;;;;5.40;4.33;;;6.10;99.90;;;;;;6311691;22;20466;-64
2022/09/22 00:41:20;;;;;;;4.90;4.20;;;6.10;1.00;;;;;;6312017;22;20829;-64
2022/09/22 00:43:50;;;;;;;5.10;4.20;;;6.10;1.00;;;;;;6311419;22;20499;-64
2022/09/22 00:46:22;;;;;;;8.30;4.03;;;6.10;1.00;;;;;;6312003;22;20455;-64
2022/09/22 00:48:54;;;;;;;7.80;3.80;;;6.10;99.90;;;;;;6312136;22;20418;-64
2022/09/22 00:51:28;;;;;;;5.83;4.53;;;6.00;1.00;;;;;;6312457;22;20418;-64
2022/09/22 00:53:59;;;;;;;5.43;4.53;;;6.00;99.90;;;;;;6311330;22;20443;-64
2022/09/22 00:56:30;;;;;;;10.03;5.37;;;5.90;1.00;;;;;;6311806;22;20399;-64
2022/09/22 00:59:02;;;;;;;6.17;4.27;;;5.90;1.00;;;;;;6311647;22;20440;-65
2022/09/22 01:01:29;;;;;;;6.37;4.07;;;5.90;1.00;;;;;;6310966;22;20419;-65
2022/09/22 01:03:58;;;;;;;6.80;4.87;;;5.90;1.00;;;;;;6310697;22;20430;-64
2022/09/22 01:06:28;;;;;;;8.10;4.60;;;5.80;1.00;;;;;;6311326;22;20838;-64
2022/09/22 01:08:56;;;;;;;8.37;5.03;;;5.80;99.90;;;;;;6311572;22;20485;-65
2022/09/22 01:11:26;;;;;;;5.20;4.30;;;5.80;99.90;;;;;;6311678;22;20719;-64
2022/09/22 01:14:01;;;;;;;7.73;4.33;;;5.80;1.00;;;;;;6310987;22;20720;-65
2022/09/22 01:17:10;;;;;;;5.20;4.20;;;5.80;92.60;;;;;;6311596;22;20488;-65
2022/09/22 01:20:10;;;;;;;5.43;4.10;;;5.80;1.00;;;;;;6310666;22;20457;-65
2022/09/22 01:22:54;;;;;;;7.03;4.47;;;5.70;1.00;;;;;;6295880;22;20497;-64
2022/09/22 01:25:47;;;;;;;9.10;4.47;;;5.70;92.30;;;;;;6310514;22;20416;-65
2022/09/22 01:28:35;;;;;;;9.77;4.60;;;5.70;38.10;;;;;;6310818;22;20395;-65
2022/09/22 01:31:06;;;;;;;8.33;4.40;;;5.80;99.90;;;;;;6310383;22;20458;-65
2022/09/22 01:33:44;;;;;;;6.77;4.40;;;5.80;99.90;;;;;;6310522;22;20394;-65
2022/09/22 01:36:24;;;;;;;6.93;3.63;;;5.80;99.90;;;;;;6310339;22;20538;-65
2022/09/22 01:39:02;;;;;;;4.17;3.50;;;5.70;99.90;;;;;;6310535;22;20518;-65
2022/09/22 01:41:45;;;;;;;5.80;3.60;;;5.70;1.00;;;;;;6310489;22;20461;-65
2022/09/22 01:44:20;;;;;;;6.83;3.93;;;5.70;1.00;;;;;;6310541;22;20427;-65
2022/09/22 01:46:54;;;;;;;8.73;4.10;;;5.60;99.90;;;;;;6310910;22;20900;-65
2022/09/22 01:49:25;;;;;;;4.90;3.93;;;5.60;79.20;;;;;;6310402;22;20419;-65
2022/09/22 01:51:56;;;;;;;5.67;3.67;;;5.60;1.00;;;;;;6310896;22;20395;-65
2022/09/22 01:54:30;;;;;;;7.00;4.03;;;5.50;1.00;;;;;;6311135;22;20721;-65
2022/09/22 01:57:07;;;;;;;5.00;3.93;;;5.50;99.90;;;;;;6311185;22;20495;-65
2022/09/22 01:59:41;;;;;;;4.47;3.17;;;5.40;99.90;;;;;;6311047;22;20514;-65
2022/09/22 02:05:32;;;;;;;4.97;4.37;;;5.40;1.00;;;;;;6276609;22;20460;-65
2022/09/22 02:08:08;;;;;;;5.83;4.07;;;5.50;99.90;;;;;;6277148;22;20415;-65
2022/09/22 02:10:40;;;;;;;6.50;4.07;;;5.40;99.90;;;;;;6276721;22;20415;-65
2022/09/22 02:13:07;;;;;;;6.70;4.10;;;5.30;99.90;;;;;;6276761;22;20489;-65
2022/09/22 02:18:25;;;;;;;5.50;3.43;;;5.30;1.00;;;;;;6276662;22;20387;-65
2022/09/22 02:20:54;;;;;;;6.70;4.10;;;5.30;66.00;;;;;;6276524;22;20491;-65
2022/09/22 02:23:21;;;;;;;5.40;4.63;;;5.20;1.00;;;;;;6276664;22;20912;-65
2022/09/22 02:25:50;;;;;;;5.13;4.60;;;5.30;1.00;;;;;;6276618;22;20421;-65
2022/09/22 02:28:20;;;;;;;5.50;4.70;;;5.30;99.90;;;;;;6276852;22;20417;-65
2022/09/22 02:30:52;;;;;;;7.13;4.83;;;5.20;91.70;;;;;;6276481;22;20712;-65
2022/09/22 02:33:23;;;;;;;6.40;4.47;;;5.20;99.90;;;;;;6276508;22;20505;-65
2022/09/22 02:36:00;;;;;;;6.40;4.30;;;5.20;99.90;;;;;;6293009;22;20395;-65
2022/09/22 02:38:34;;;;;;;5.90;4.20;;;5.10;1.00;;;;;;6310618;22;20415;-65
2022/09/22 02:41:12;;;;;;;5.67;4.60;;;5.10;1.00;;;;;;6310406;22;20455;-65
2022/09/22 02:43:46;;;;;;;5.20;4.43;;;5.10;59.80;;;;;;6309418;22;20417;-66
2022/09/22 02:46:23;;;;;;;6.63;4.80;;;5.10;56.50;;;;;;6310054;22;20455;-65
2022/09/22 02:48:57;;;;;;;7.37;5.47;;;5.20;99.90;;;;;;6310386;22;20474;-65
2022/09/22 02:51:27;;;;;;;6.57;4.30;;;5.20;99.90;;;;;;6310441;22;20520;-65
2022/09/22 02:53:55;;;;;;;6.73;5.27;;;5.10;99.90;;;;;;6309591;22;20880;-66
2022/09/22 02:56:22;;;;;;;7.80;5.03;;;5.10;99.90;;;;;;6310058;22;20432;-65
2022/09/22 02:58:49;;;;;;;5.30;4.77;;;5.10;99.90;;;;;;6310367;22;20869;-65
2022/09/22 03:01:16;;;;;;;7.60;5.10;;;5.10;99.90;;;;;;6310193;22;20541;-66
2022/09/22 03:03:46;;;;;;;5.57;4.80;;;5.10;99.90;;;;;;6309461;22;20426;-65
2022/09/22 03:06:16;;;;;;;9.40;5.20;;;5.00;99.90;;;;;;6310148;22;20452;-65
2022/09/22 03:08:48;;;;;;;10.03;4.63;;;5.00;99.90;;;;;;6310322;22;20416;-66
2022/09/22 03:11:15;;;;;;;5.43;4.73;;;5.00;99.90;;;;;;6310749;22;20469;-66
2022/09/22 03:13:42;;;;;;;9.00;5.20;;;5.00;99.90;;;;;;6309805;22;20522;-66
2022/09/22 03:16:09;;;;;;;6.60;4.93;;;4.90;99.90;;;;;;6310841;22;20391;-65
2022/09/22 03:18:42;;;;;;;9.10;5.00;;;4.90;99.90;;;;;;6313550;22;20909;-66
2022/09/22 03:21:10;;;;;;;5.33;4.73;;;4.90;99.90;;;;;;6313497;22;20419;-65
2022/09/22 03:23:37;;;;;;;7.17;4.70;;;4.90;99.90;;;;;;6313115;22;20466;-66
2022/09/22 03:26:06;;;;;;;6.97;4.33;;;4.90;99.90;;;;;;6313555;22;20482;-65
2022/09/22 03:28:33;;;;;;;8.73;4.70;;;4.90;99.90;;;;;;6313646;22;20494;-65
2022/09/22 03:31:03;;;;;;;7.73;4.87;;;4.90;99.90;;;;;;6313755;22;20511;-65
2022/09/22 03:33:30;;;;;;;5.43;4.60;;;4.90;99.90;;;;;;6313579;22;20771;-64
2022/09/22 03:35:59;;;;;;;7.20;4.57;;;4.90;99.90;;;;;;6313363;22;20422;-65
2022/09/22 03:38:29;;;;;;;8.27;6.40;;;4.80;99.90;;;;;;6313864;22;20429;-65
2022/09/22 03:40:57;;;;;;;6.03;4.77;;;4.80;99.90;;;;;;6314062;22;20521;-65
2022/09/22 03:43:26;;;;;;;6.97;4.90;;;4.80;99.90;;;;;;6314380;22;20415;-65
2022/09/22 03:45:57;;;;;;;8.53;5.10;;;4.80;99.90;;;;;;6312909;22;20424;-65
2022/09/22 03:48:25;;;;;;;5.87;4.50;;;4.80;99.90;;;;;;6312582;22;20424;-65
2022/09/22 03:50:53;;;;;;;8.13;4.97;;;4.80;99.90;;;;;;6313944;22;20514;-65
2022/09/22 03:53:21;;;;;;;5.17;4.43;;;4.70;99.90;;;;;;6313102;22;20419;-66
2022/09/22 03:55:48;;;;;;;6.90;4.33;;;4.70;99.90;;;;;;6312970;22;20511;-65
2022/09/22 03:58:20;;;;;;;5.23;4.50;;;4.80;99.90;;;;;;6313862;22;20511;-65
2022/09/22 04:00:50;;;;;;;8.13;4.57;;;4.70;99.90;;;;;;6313796;22;20419;-66
2022/09/22 04:03:17;;;;;;;6.63;4.73;;;4.70;99.90;;;;;;6313815;22;20776;-65
2022/09/22 04:05:51;;;;;;;10.67;5.00;;;4.70;99.90;;;;;;6313248;22;20469;-65
2022/09/22 04:08:19;;;;;;;7.30;4.57;;;4.70;99.90;;;;;;6313513;22;20478;-65
2022/09/22 04:10:46;;;;;;;9.10;5.10;;;4.70;99.90;;;;;;6313890;22;20416;-66
2022/09/22 04:13:14;;;;;;;5.90;4.13;;;4.70;99.90;;;;;;6313646;22;20416;-65
2022/09/22 04:15:42;;;;;;;6.40;4.60;;;4.60;99.90;;;;;;6312469;22;20420;-65
2022/09/22 04:18:13;;;;;;;8.47;4.50;;;4.60;99.90;;;;;;6312911;22;20417;-65
2022/09/22 04:20:44;;;;;;;6.67;4.70;;;4.70;99.90;;;;;;6313860;22;20513;-65
2022/09/22 04:23:11;;;;;;;7.30;4.27;;;4.60;99.90;;;;;;6313492;22;20397;-65
2022/09/22 04:25:38;;;;;;;5.50;4.40;;;4.60;99.90;;;;;;6313241;22;20416;-66
2022/09/22 04:28:07;;;;;;;9.07;5.03;;;4.60;99.90;;;;;;6312264;22;20490;-66
2022/09/22 04:30:35;;;;;;;4.77;4.27;;;4.60;99.90;;;;;;6312131;22;20387;-66
2022/09/22 04:33:02;;;;;;;5.70;5.00;;;4.60;99.90;;;;;;6312036;22;20497;-65
2022/09/22 04:35:34;;;;;;;6.33;4.40;;;4.50;99.90;;;;;;6311818;22;20733;-65
2022/09/22 04:38:02;;;;;;;8.00;5.00;;;4.50;99.90;;;;;;6311668;22;20506;-65
2022/09/22 04:40:29;;;;;;;7.17;4.67;;;4.50;99.90;;;;;;6311602;22;20539;-66
2022/09/22 04:42:56;;;;;;;6.10;5.07;;;4.50;99.90;;;;;;6312022;22;20415;-66
2022/09/22 04:45:24;;;;;;;6.67;4.43;;;4.50;99.90;;;;;;6311530;22;20419;-66
2022/09/22 04:47:53;;;;;;;8.30;4.47;;;4.50;99.90;;;;;;6311607;22;20493;-65
2022/09/22 04:50:22;;;;;;;8.80;5.30;;;4.50;99.90;;;;;;6310722;22;20523;-66
2022/09/22 04:52:52;;;;;;;8.10;6.03;;;4.50;99.90;;;;;;6309940;22;20423;-66
2022/09/22 04:55:23;;;;;;;6.90;6.00;;;4.50;99.90;;;;;;6309578;22;20511;-65
2022/09/22 04:57:51;;;;;;;5.87;5.27;;;4.50;98.10;;;;;;6309426;22;20402;-65
2022/09/22 05:00:20;;;;;;;7.67;6.87;;;4.50;99.90;;;;;;6308806;22;20540;-66
2022/09/22 05:02:48;;;;;;;8.40;4.90;;;4.40;99.90;;;;;;6309498;22;20913;-65
2022/09/22 05:05:16;;;;;;;9.13;5.07;;;4.40;99.90;;;;;;6308308;22;20751;-65
2022/09/22 05:07:44;;;;;;;6.10;5.50;;;4.40;99.90;;;;;;6308508;22;20390;-66
2022/09/22 05:10:17;;;;;;;7.20;4.63;;;4.30;99.90;;;;;;6308683;22;20862;-65
2022/09/22 05:12:47;;;;;;;6.67;5.10;;;4.30;99.90;;;;;;6309240;22;20401;-65
2022/09/22 05:15:15;;;;;;;6.70;5.10;;;4.30;99.90;;;;;;6310578;22;20391;-65
2022/09/22 05:17:46;;;;;;;6.67;5.27;;;4.40;99.90;;;;;;6310048;22;20438;-65
2022/09/22 05:20:14;;;;;;;6.33;4.77;;;4.30;99.90;;;;;;6308634;22;20440;-65
2022/09/22 05:22:41;;;;;;;7.80;5.07;;;4.30;99.90;;;;;;6309251;22;20396;-65
2022/09/22 05:25:16;;;;;;;6.27;5.67;;;4.30;99.90;;;;;;6310090;22;20890;-65
2022/09/22 05:27:47;;;;;;;8.33;5.53;;;4.40;99.90;;;;;;6308970;22;20423;-65
2022/09/22 05:30:17;;;;;;;10.27;5.27;;;4.40;99.90;;;;;;6309805;22;20413;-65
2022/09/22 05:32:45;;;;;;;6.40;5.50;;;4.40;99.90;;;;;;6309226;22;20420;-65
2022/09/22 05:35:13;;;;;;;9.20;5.40;;;4.40;99.90;;;;;;6309915;22;20489;-65
2022/09/22 05:37:43;;;;;;;5.37;4.30;;;4.40;99.90;;;;;;6308688;22;20420;-65
2022/09/22 05:40:11;;;;;;;5.90;4.80;;;4.40;99.90;;;;;;6309105;22;20419;-66
2022/09/22 05:42:41;;;;;;;5.60;4.83;;;4.50;99.90;;;;;;6310657;22;20510;-66
2022/09/22 05:45:14;;;;;;;5.67;5.07;;;4.60;99.90;;;;;;6309779;22;20424;-66
2022/09/22 05:47:42;;;;;;;5.60;5.07;;;4.60;99.90;;;;;;6307574;22;20797;-66
2022/09/22 05:50:11;;;;;;;5.13;4.50;;;4.70;99.90;;;;;;6309896;22;20413;-66
2022/09/22 05:52:39;;;;;;;6.40;5.23;;;4.80;99.90;;;;;;6310269;22;20391;-65
2022/09/22 05:55:08;;;;;;;7.23;5.37;;;4.90;99.90;;;;;;6310301;22;20845;-66
2022/09/22 05:57:35;;;;;;;7.03;5.13;;;5.00;99.90;;;;;;6309519;22;20896;-66
2022/09/22 06:00:03;;;;;;;6.93;5.03;;;5.20;99.90;;;;;;6309914;22;20536;-67
2022/09/22 06:02:32;;;;;;;6.27;5.67;;;5.30;99.90;;;;;;6309852;22;20420;-66
2022/09/22 06:04:59;;;;;;;7.80;5.60;;;5.40;99.90;;;;;;6310349;22;20920;-66
2022/09/22 06:07:29;;;;;;;8.13;5.70;;;5.50;99.90;;;;;;6309908;22;20900;-65
2022/09/22 06:09:59;;;;;;;5.67;4.57;;;5.60;99.90;;;;;;6309383;22;20440;-65
2022/09/22 06:12:29;;;;;;;9.10;5.80;;;5.80;1.00;;;;;;6309857;22;20412;-65
2022/09/22 06:14:57;;;;;;;7.20;5.30;;;5.90;99.90;;;;;;6310146;22;20842;-65
2022/09/22 06:17:24;;;;;;;6.37;5.07;;;6.10;1.00;;;;;;6309529;22;20490;-65
2022/09/22 06:19:52;;;;;;;5.40;4.90;;;6.30;26.80;;;;;;6309501;22;20905;-66
2022/09/22 06:22:20;;;;;;;6.83;5.23;;;6.40;99.90;;;;;;6309800;22;20899;-65
2022/09/22 06:24:47;;;;;;;9.60;5.70;;;6.70;99.90;;;;;;6309450;22;20520;-65
2022/09/22 06:27:14;;;;;;;6.27;4.83;;;6.90;1.00;;;;;;6308986;22;20420;-66
2022/09/22 06:29:42;;;;;;;7.60;5.20;;;7.10;99.90;;;;;;6307474;22;20514;-66
2022/09/22 06:32:09;;;;;;;8.67;5.50;;;7.30;1.00;;;;;;6309354;22;20459;-66
2022/09/22 06:34:37;;;;;;;6.77;5.30;;;7.40;99.90;;;;;;6309134;22;20789;-66
2022/09/22 06:37:08;;;;;;;6.80;5.47;;;7.60;72.50;;;;;;6309410;22;20856;-65
2022/09/22 06:39:36;;;;;;;6.13;5.33;;;7.90;1.00;;;;;;6309380;22;20464;-65
2022/09/22 06:42:04;;;;;;;8.00;5.30;;;8.10;1.00;;;;;;6309743;22;20448;-66
2022/09/22 06:44:31;;;;;;;7.17;6.43;;;8.40;1.00;;;;;;6309793;22;20469;-65
2022/09/22 06:46:59;;;;;;;8.53;5.57;;;8.60;99.90;;;;;;6310412;22;20797;-66
2022/09/22 06:49:26;;;;;;;7.73;5.47;;;8.90;99.90;;;;;;6309040;22;20420;-66
2022/09/22 06:51:54;;;;;;;9.13;6.10;;;9.10;67.00;;;;;;6309663;22;20802;-65
2022/09/22 06:54:22;;;;;;;8.40;6.10;;;9.30;1.00;;;;;;6309948;22;20401;-66
2022/09/22 06:56:52;;;;;;;7.63;6.07;;;9.10;1.00;;;;;;6309853;22;20570;-66
2022/09/22 06:59:19;;;;;;;6.70;5.57;;;9.20;1.00;;;;;;6309805;22;20485;-66
2022/09/22 07:01:47;;;;;;;7.47;5.67;;;9.70;1.00;;;;;;6309742;22;20488;-67
2022/09/22 07:04:14;;;;;;;9.30;5.80;;;10.20;1.00;;;;;;6309806;22;20486;-68
2022/09/22 07:06:45;;;;;;;6.23;5.60;;;10.30;1.00;;;;;;6309142;22;20421;-67
2022/09/22 07:09:18;;;;;;;10.27;5.17;;;10.80;1.00;;;;;;6309645;22;20817;-66
2022/09/22 07:11:48;;;;;;;9.70;6.30;;;11.30;1.00;;;;;;6309965;22;20789;-66
2022/09/22 07:14:18;;;;;;;5.23;4.37;;;11.50;1.00;;;;;;6309867;22;20420;-67
2022/09/22 07:16:48;;;;;;;8.70;5.67;;;11.50;99.90;;;;;;6309144;22;20424;-66
2022/09/22 07:19:16;;;;;;;8.20;5.30;;;11.60;99.90;;;;;;6309747;22;20395;-67
2022/09/22 07:21:44;;;;;;;6.87;5.77;;;11.90;99.90;;;;;;6309351;22;20531;-66
2022/09/22 07:24:13;;;;;;;7.97;5.10;;;12.30;99.90;;;;;;6309607;22;20515;-66
2022/09/22 07:26:42;;;;;;;7.10;4.97;;;12.60;99.90;;;;;;6309057;22;20416;-66
2022/09/22 07:29:11;;;;;;;8.30;5.93;;;12.80;99.90;;;;;;6309377;22;20420;-66
2022/09/22 07:31:40;;;;;;;6.87;4.50;;;13.10;99.90;;;;;;6308939;22;20850;-66
2022/09/22 07:34:11;;;;;;;4.60;4.20;;;13.10;99.90;;;;;;6309503;22;20420;-66
2022/09/22 07:36:40;;;;;;;9.57;5.23;;;13.50;99.90;;;;;;6309525;22;20834;-66
2022/09/22 07:39:11;;;;;;;6.30;5.27;;;13.60;99.90;;;;;;6309491;22;20733;-66
2022/09/22 07:41:43;;;;;;;6.47;5.77;;;14.10;99.90;;;;;;6308986;22;20451;-66
2022/09/22 07:46:59;;;;;;;6.80;5.40;;;14.60;99.90;;;;;;6308718;22;20470;-66
2022/09/22 07:49:30;;;;;;;6.53;4.97;;;14.60;99.90;;;;;;6308549;22;20419;-66
2022/09/22 07:52:01;;;;;;;6.90;6.10;;;14.50;99.90;;;;;;6308638;22;20423;-65
2022/09/22 07:54:33;;;;;;;7.73;4.50;;;14.80;99.90;;;;;;6309145;22;20416;-66
2022/09/22 07:57:08;;;;;;;5.67;3.43;;;15.10;99.90;;;;;;6307869;22;20420;-65
2022/09/22 07:59:38;;;;;;;6.33;3.60;;;15.50;99.90;;;;;;6308458;22;20415;-65
2022/09/22 08:02:09;;;;;;;3.63;3.23;;;15.70;99.90;;;;;;6308959;22;20483;-65
2022/09/22 08:04:36;;;;;;;5.90;3.67;;;15.90;99.90;;;;;;6310577;22;20420;-65
2022/09/22 08:07:05;;;;;;;5.20;3.07;;;16.20;99.90;;;;;;6309768;22;20514;-65
2022/09/22 08:09:32;;;;;;;3.93;2.97;;;16.30;99.90;;;;;;6310594;22;20853;-65
2022/09/22 08:11:59;;;;;;;7.60;3.83;;;16.70;99.90;;;;;;6310209;22;20412;-65
2022/09/22 08:14:27;;;;;;;4.40;2.90;;;16.80;99.90;;;;;;6311141;22;20514;-65
2022/09/22 08:17:00;;;;;;;6.10;2.80;;;17.00;99.90;;;;;;6311407;22;20807;-65
2022/09/22 08:19:32;;;;;;;4.50;3.60;;;17.20;99.90;;;;;;6310190;22;20518;-65
2022/09/22 08:22:00;;;;;;;4.20;3.40;;;17.20;99.90;;;;;;6310775;22;20454;-65
2022/09/22 08:24:27;;;;;;;3.33;3.00;;;17.60;99.90;;;;;;6310341;22;20515;-65
2022/09/22 08:26:56;;;;;;;4.00;2.73;;;17.80;99.90;;;;;;6311248;22;20481;-65
2022/09/22 08:29:24;;;;;;;3.50;2.93;;;18.00;99.90;;;;;;6310446;22;20409;-65
2022/09/22 08:31:52;;;;;;;4.27;2.60;;;17.90;99.90;;;;;;6310028;22;20416;-65
2022/09/22 08:34:21;;;;;;;5.43;2.87;;;18.10;99.90;;;;;;6311024;22;20424;-65
2022/09/22 08:36:49;;;;;;;3.47;2.80;;;18.20;99.90;;;;;;6311392;22;20470;-65
2022/09/22 08:39:17;;;;;;;3.50;2.90;;;18.60;99.90;;;;;;6309898;22;20528;-65
2022/09/22 08:41:56;;;;;;;3.17;2.57;;;18.80;99.90;;;;;;6310375;22;20543;-65
2022/09/22 08:44:27;;;;;;;3.00;2.70;;;19.00;99.90;;;;;;6310610;22;20518;-65
2022/09/22 08:46:59;;;;;;;3.43;2.80;;;19.10;99.90;;;;;;6311160;22;20443;-65
2022/09/22 08:52:27;;;;;;;3.50;2.40;;;19.40;99.90;;;;;;6310287;22;20399;-65
2022/09/22 08:54:58;;;;;;;3.27;2.20;;;19.60;99.90;;;;;;6310413;22;20458;-65
2022/09/22 08:57:55;;;;;;;2.60;2.40;;;19.70;99.90;;;;;;6310034;22;20395;-65
2022/09/22 09:00:23;;;;;;;3.10;2.30;;;19.80;99.90;;;;;;6310801;22;20929;-65
2022/09/22 09:03:01;;;;;;;3.63;2.37;;;20.00;99.90;;;;;;6311010;22;20455;-65
2022/09/22 09:05:49;;;;;;;2.60;1.83;;;20.20;99.90;;;;;;6309963;22;20416;-65
2022/09/22 09:08:46;;;;;;;5.33;2.90;;;20.40;99.90;;;;;;6310802;22;20421;-65
2022/09/22 09:11:31;;;;;;;2.30;2.10;;;20.60;99.90;;;;;;6302631;22;20420;-65
2022/09/22 09:14:16;;;;;;;3.33;2.37;;;20.60;99.90;;;;;;6309325;22;20412;-65
2022/09/22 09:16:53;;;;;;;2.47;2.27;;;20.60;99.90;;;;;;6309933;22;20481;-64
2022/09/22 09:19:30;;;;;;;2.30;2.10;;;20.60;99.90;;;;;;6310770;22;20426;-65
2022/09/22 09:22:04;;;;;;;2.17;1.97;;;20.60;99.90;;;;;;6310201;22;20443;-64
2022/09/22 09:24:33;;;;;;;2.70;1.90;;;20.70;99.90;;;;;;6309029;22;20502;-65
2022/09/22 09:27:08;;;;;;;2.53;2.23;;;21.00;99.90;;;;;;6309789;22;20512;-64
2022/09/22 09:29:41;;;;;;;2.60;2.40;;;21.10;99.90;;;;;;6310198;22;20394;-65
2022/09/22 09:32:19;;;;;;;2.30;1.93;;;21.30;99.90;;;;;;6309034;22;20422;-65
2022/09/22 09:34:48;;;;;;;2.87;2.27;;;21.50;99.90;;;;;;6310436;22;20420;-65
2022/09/22 09:37:19;;;;;;;2.47;2.27;;;21.30;99.90;;;;;;6310709;22;20474;-65
2022/09/22 09:39:48;;;;;;;2.93;2.13;;;21.00;99.90;;;;;;6309279;22;20445;-65
2022/09/22 09:42:24;;;;;;;2.40;2.20;;;21.30;99.90;;;;;;6309938;22;20448;-64
2022/09/22 09:44:53;;;;;;;2.00;1.90;;;21.50;99.90;;;;;;6310773;22;20518;-65
2022/09/22 09:47:43;;;;;;;2.67;2.47;;;21.60;99.90;;;;;;6310339;22;20443;-65
2022/09/22 09:50:11;;;;;;;2.30;2.10;;;21.50;99.90;;;;;;6309768;22;20417;-64
2022/09/22 09:52:47;;;;;;;2.20;1.90;;;21.40;99.90;;;;;;6309691;22;20481;-64
2022/09/22 09:55:24;;;;;;;2.70;2.50;;;21.70;99.90;;;;;;6310416;22;20783;-65
2022/09/22 09:58:07;;;;;;;2.70;2.20;;;21.80;99.90;;;;;;6310201;22;20845;-64
2022/09/22 10:00:34;;;;;;;2.50;2.30;;;22.00;99.90;;;;;;6309289;22;20430;-65
2022/09/22 10:03:13;;;;;;;3.43;2.43;;;22.10;99.90;;;;;;6309779;22;20535;-65
2022/09/22 10:05:43;;;;;;;2.90;2.70;;;21.90;99.90;;;;;;6309994;22;20849;-64
2022/09/22 10:08:20;;;;;;;2.50;2.30;;;21.90;99.90;;;;;;6309693;22;20456;-64
2022/09/22 10:10:48;;;;;;;2.70;1.90;;;22.10;99.90;;;;;;6309205;22;20850;-65
2022/09/22 10:13:30;;;;;;;3.03;2.40;;;21.90;99.90;;;;;;6308393;22;20413;-65
2022/09/22 10:16:06;;;;;;;3.67;2.57;;;22.40;99.90;;;;;;6309902;22;20416;-66
2022/09/22 10:18:39;;;;;;;2.60;2.33;;;22.40;99.90;;;;;;6309645;22;20837;-65
2022/09/22 10:21:14;;;;;;;2.20;2.00;;;22.30;99.90;;;;;;6309561;22;20420;-65
2022/09/22 10:23:43;;;;;;;2.30;2.00;;;22.00;99.90;;;;;;6309768;22;20417;-64
2022/09/22 10:26:25;;;;;;;2.30;1.67;;;22.00;99.90;;;;;;6308324;22;20771;-65
2022/09/22 10:29:16;;;;;;;2.17;2.00;;;22.50;99.90;;;;;;6308385;22;20416;-65
2022/09/22 10:32:04;;;;;;;11.50;2.77;;;22.40;99.90;;;;;;6295757;22;20884;-66
2022/09/22 10:34:34;;;;;;;2.20;1.87;;;22.50;99.90;;;;;;6306796;22;20416;-65
2022/09/22 10:37:03;;;;;;;2.80;2.60;;;22.70;99.90;;;;;;6307625;22;20486;-65
2022/09/22 10:39:39;;;;;;;4.10;2.40;;;23.10;99.90;;;;;;6306155;22;20451;-65
2022/09/22 10:42:15;;;;;;;2.50;2.27;;;23.10;99.90;;;;;;6306350;22;20547;-65
2022/09/22 10:44:42;;;;;;;2.60;2.40;;;23.30;99.90;;;;;;6309444;22;20510;-66
2022/09/22 10:47:26;;;;;;;2.43;2.20;;;23.50;99.90;;;;;;6309233;22;20515;-65
2022/09/22 10:50:13;;;;;;;2.33;2.13;;;23.50;99.90;;;;;;6309419;22;20416;-65
2022/09/22 10:52:48;;;;;;;1.97;1.87;;;23.20;99.90;;;;;;6307524;22;20515;-66
2022/09/22 10:55:28;;;;;;;3.03;2.23;;;23.20;99.90;;;;;;6308050;22;20420;-65
2022/09/22 10:58:18;;;;;;;2.57;2.37;;;23.30;99.90;;;;;;6308314;22;20424;-65
2022/09/22 11:00:47;;;;;;;2.60;2.00;;;23.10;99.90;;;;;;6309520;22;20416;-66
2022/09/22 11:03:38;;;;;;;2.60;2.40;;;23.50;99.90;;;;;;6309533;22;20456;-65
2022/09/22 11:12:18;;;;;;;2.40;2.20;;;23.10;99.90;;;;;;6307451;22;20612;-65
2022/09/22 11:15:04;;;;;;;2.23;2.00;;;23.40;99.90;;;;;;6308587;22;20456;-65
2022/09/22 11:17:52;;;;;;;2.80;2.60;;;23.60;99.90;;;;;;6308831;22;20416;-65
2022/09/22 11:20:33;;;;;;;3.43;2.43;;;23.90;99.90;;;;;;6308757;22;20463;-65
2022/09/22 11:23:39;;;;;;;2.70;2.50;;;23.40;99.90;;;;;;6308125;22;20422;-65
2022/09/22 11:26:44;;;;;;;3.33;3.00;;;23.40;99.90;;;;;;6308270;22;20408;-65
2022/09/22 11:29:46;;;;;;;2.90;2.70;;;23.50;99.90;;;;;;6307873;22;20417;-65
2022/09/22 11:33:01;;;;;;;2.80;2.60;;;24.00;99.90;;;;;;6308333;22;20412;-64
2022/09/22 11:36:00;;;;;;;2.73;2.53;;;24.30;99.90;;;;;;6307364;22;20420;-64
2022/09/22 11:38:44;;;;;;;2.90;2.70;;;23.40;99.90;;;;;;6307386;22;20455;-64
2022/09/22 11:41:28;;;;;;;6.23;2.97;;;23.70;99.90;;;;;;6310634;22;20519;-65
2022/09/22 11:44:16;;;;;;;2.77;2.57;;;23.60;99.90;;;;;;6309360;22;20547;-64
2022/09/22 11:47:02;;;;;;;2.93;2.73;;;23.50;99.90;;;;;;6310414;22;20423;-64
2022/09/22 11:49:44;;;;;;;2.50;2.30;;;23.70;99.90;;;;;;6309904;22;20518;-63
2022/09/22 11:52:23;;;;;;;2.73;2.53;;;23.80;99.90;;;;;;6308919;22;20448;-65
2022/09/22 11:55:18;;;;;;;4.37;2.40;;;24.00;99.90;;;;;;6311315;22;20420;-65
2022/09/22 11:57:50;;;;;;;2.33;2.13;;;23.50;99.90;;;;;;6310154;22;20448;-64
2022/09/22 12:00:19;;;;;;;4.93;2.90;;;23.70;99.90;;;;;;6307026;22;20477;-64
2022/09/22 12:02:54;;;;;;;2.70;2.50;;;23.30;99.90;;;;;;6309162;22;20447;-63
2022/09/22 12:05:27;;;;;;;7.50;2.83;;;22.80;99.90;;;;;;6310701;22;20420;-65
2022/09/22 12:08:02;;;;;;;3.10;2.70;;;22.30;99.90;;;;;;6309957;22;20481;-64
2022/09/22 12:10:34;;;;;;;3.70;2.67;;;21.60;99.90;;;;;;6309291;22;20401;-65
2022/09/22 12:13:07;;;;;;;2.83;2.63;;;21.40;99.90;;;;;;6310436;22;20452;-65
2022/09/22 12:15:47;;;;;;;2.80;2.60;;;21.40;99.90;;;;;;6309000;22;20497;-64
2022/09/22 12:18:24;;;;;;;2.77;2.57;;;22.30;99.90;;;;;;6309010;22;20900;-64
2022/09/22 12:20:58;;;;;;;2.97;2.77;;;22.20;99.90;;;;;;6310256;22;20386;-65
2022/09/22 12:23:52;;;;;;;3.23;2.67;;;22.00;99.90;;;;;;6308717;22;20897;-64
2022/09/22 12:26:27;;;;;;;2.83;2.50;;;22.50;99.90;;;;;;6306259;22;20423;-64
2022/09/22 12:28:56;;;;;;;2.97;2.77;;;23.10;99.90;;;;;;6311210;22;20394;-64
2022/09/22 12:31:33;;;;;;;2.93;2.67;;;23.60;99.90;;;;;;6311841;22;20386;-63
2022/09/22 12:34:14;;;;;;;3.40;3.10;;;23.50;99.90;;;;;;6310535;22;20408;-63
2022/09/22 12:36:45;;;;;;;2.90;2.70;;;23.30;99.90;;;;;;6310787;22;20386;-64
2022/09/22 12:39:18;;;;;;;2.90;2.70;;;23.20;99.90;;;;;;6310892;22;20447;-64
2022/09/22 12:41:48;;;;;;;3.23;2.50;;;23.60;99.90;;;;;;6310062;22;20841;-64
2022/09/22 12:44:20;;;;;;;2.43;2.27;;;23.90;99.90;;;;;;6310588;22;20447;-64
2022/09/22 12:46:50;;;;;;;3.20;2.90;;;24.30;99.90;;;;;;6309229;22;20738;-64
2022/09/22 12:49:21;;;;;;;3.23;2.50;;;24.60;99.90;;;;;;6309842;22;20510;-64
2022/09/22 12:51:48;;;;;;;3.03;2.27;;;24.60;99.90;;;;;;6308671;22;20416;-64
2022/09/22 12:54:46;;;;;;;3.40;2.57;;;24.00;99.90;;;;;;6309084;22;20414;-64
2022/09/22 12:57:29;;;;;;;2.37;2.23;;;23.70;99.90;;;;;;6310891;22;20424;-64
2022/09/22 13:00:21;;;;;;;2.33;2.13;;;23.30;99.90;;;;;;6310662;22;20412;-65
2022/09/22 13:02:50;;;;;;;2.20;2.00;;;23.70;99.90;;;;;;6308689;22;20423;-64
2022/09/22 13:05:41;;;;;;;3.23;2.20;;;24.20;99.90;;;;;;6309499;22;20460;-63
2022/09/22 13:08:24;;;;;;;2.63;2.43;;;23.70;99.90;;;;;;6309863;22;20427;-64
2022/09/22 13:11:00;;;;;;;2.17;2.00;;;23.80;99.90;;;;;;6310673;22;20951;-64
2022/09/22 13:13:40;;;;;;;2.27;2.07;;;23.90;99.90;;;;;;6310189;22;20423;-64
2022/09/22 13:16:33;;;;;;;2.67;2.43;;;23.60;99.90;;;;;;6308844;22;20507;-64
2022/09/22 13:19:00;;;;;;;2.40;2.13;;;23.40;99.90;;;;;;6305966;22;20880;-64
2022/09/22 13:21:32;;;;;;;2.50;2.10;;;23.40;99.90;;;;;;6310871;22;20416;-64
2022/09/22 13:24:01;;;;;;;3.00;2.70;;;23.60;99.90;;;;;;6310380;22;20888;-63
2022/09/22 13:26:31;;;;;;;3.33;2.37;;;24.00;99.90;;;;;;6310250;22;20523;-63
2022/09/22 13:29:05;;;;;;;2.47;2.30;;;23.70;99.90;;;;;;6311364;22;20726;-65
2022/09/22 13:31:41;;;;;;;2.60;2.40;;;23.60;99.90;;;;;;6310383;22;20416;-64
2022/09/22 13:34:30;;;;;;;2.63;2.43;;;23.70;99.90;;;;;;6310438;22;20416;-63
2022/09/22 13:37:01;;;;;;;2.67;2.40;;;23.90;99.90;;;;;;6311028;22;20416;-64
2022/09/22 13:39:33;;;;;;;3.10;2.80;;;23.80;99.90;;;;;;6310398;22;20936;-64
2022/09/22 13:42:05;;;;;;;2.70;2.50;;;23.90;99.90;;;;;;6310930;22;20416;-65